createdAt,value
2022-08-14T00:00:45.671Z,100.00
2022-08-14T00:03:29.452Z,100.00
2022-08-14T00:06:01.109Z,100.00
2022-08-14T00:08:45.314Z,100.00
2022-08-14T00:11:14.622Z,100.00
2022-08-14T00:13:51.737Z,100.00
2022-08-14T00:16:41.764Z,100.00
2022-08-14T00:19:19.406Z,100.00
2022-08-14T00:21:51.940Z,100.00
2022-08-14T00:24:28.937Z,100.00
2022-08-14T00:27:02.065Z,100.00
2022-08-14T00:29:40.413Z,100.00
2022-08-14T00:32:50.503Z,100.00
2022-08-14T00:35:07.784Z,100.00
2022-08-14T00:37:44.020Z,100.00
2022-08-14T00:40:27.493Z,100.00
2022-08-14T00:43:04.887Z,100.00
2022-08-14T00:45:33.944Z,100.00
2022-08-14T00:48:03.151Z,100.00
2022-08-14T00:50:34.443Z,100.00
2022-08-14T00:53:10.595Z,100.00
2022-08-14T00:55:41.445Z,100.00
2022-08-14T00:58:32.940Z,100.00
2022-08-14T01:01:06.046Z,100.00
2022-08-14T01:03:39.641Z,100.00
2022-08-14T01:06:16.922Z,100.00
2022-08-14T01:08:51.495Z,100.00
2022-08-14T01:11:35.247Z,100.00
2022-08-14T01:14:25.923Z,100.00
2022-08-14T01:16:55.393Z,100.00
2022-08-14T01:19:44.656Z,100.00
2022-08-14T01:22:21.186Z,100.00
2022-08-14T01:25:07.918Z,100.00
2022-08-14T01:27:53.844Z,100.00
2022-08-14T01:30:28.592Z,100.00
2022-08-14T01:32:59.821Z,100.00
2022-08-14T01:36:04.079Z,100.00
2022-08-14T01:38:57.984Z,100.00
2022-08-14T01:41:56.194Z,100.00
2022-08-14T01:44:54.377Z,100.00
2022-08-14T01:47:44.290Z,100.00
2022-08-14T01:50:34.393Z,100.00
2022-08-14T01:53:23.744Z,100.00
2022-08-14T01:56:03.479Z,100.00
2022-08-14T01:58:33.154Z,100.00
2022-08-14T02:01:05.152Z,100.00
2022-08-14T02:03:41.972Z,100.00
2022-08-14T02:06:32.501Z,100.00
2022-08-14T02:09:04.421Z,100.00
2022-08-14T02:11:54.555Z,100.00
2022-08-14T02:14:31.528Z,100.00
2022-08-14T02:17:01.872Z,100.00
2022-08-14T02:19:35.771Z,100.00
2022-08-14T02:22:06.297Z,100.00
2022-08-14T02:24:45.201Z,100.00
2022-08-14T02:28:22.294Z,100.00
2022-08-14T02:30:11.103Z,100.00
2022-08-14T02:32:42.936Z,100.00
2022-08-14T02:35:17.993Z,100.00
2022-08-14T02:37:49.317Z,100.00
2022-08-14T02:40:22.654Z,100.00
2022-08-14T02:43:03.745Z,100.00
2022-08-14T02:45:38.832Z,100.00
2022-08-14T02:49:02.102Z,100.00
2022-08-14T02:51:10.553Z,100.00
2022-08-14T02:53:42.856Z,100.00
2022-08-14T02:56:30.632Z,100.00
2022-08-14T02:59:10.215Z,100.00
2022-08-14T03:01:43.583Z,100.00
2022-08-14T03:04:20.184Z,100.00
2022-08-14T03:07:06.115Z,100.00
2022-08-14T03:10:25.028Z,100.00
2022-08-14T03:12:31.446Z,100.00
2022-08-14T03:15:14.217Z,100.00
2022-08-14T03:17:57.181Z,100.00
2022-08-14T03:20:29.092Z,100.00
2022-08-14T03:23:04.255Z,100.00
2022-08-14T03:25:37.349Z,100.00
2022-08-14T03:28:14.406Z,100.00
2022-08-14T03:31:00.305Z,100.00
2022-08-14T03:33:37.810Z,100.00
2022-08-14T03:37:39.354Z,100.00
2022-08-14T03:39:14.626Z,100.00
2022-08-14T03:41:51.411Z,100.00
2022-08-14T03:45:20.370Z,100.00
2022-08-14T03:47:12.170Z,100.00
2022-08-14T03:49:50.197Z,100.00
2022-08-14T03:52:55.667Z,100.00
2022-08-14T03:55:13.064Z,100.00
2022-08-14T03:57:44.078Z,100.00
2022-08-14T04:00:44.348Z,100.00
2022-08-14T04:03:09.108Z,100.00
2022-08-14T04:05:43.466Z,100.00
2022-08-14T04:08:30.291Z,100.00
2022-08-14T04:11:02.054Z,100.00
2022-08-14T04:13:35.403Z,100.00
2022-08-14T04:16:06.925Z,100.00
2022-08-14T04:18:46.276Z,100.00
2022-08-14T04:21:17.013Z,100.00
2022-08-14T04:23:49.206Z,100.00
2022-08-14T04:26:42.004Z,100.00
2022-08-14T04:29:15.563Z,100.00
2022-08-14T04:32:59.062Z,100.00
2022-08-14T04:34:41.980Z,100.00
2022-08-14T04:37:29.280Z,100.00
2022-08-14T04:40:19.616Z,100.00
2022-08-14T04:43:06.178Z,100.00
2022-08-14T04:45:38.744Z,100.00
2022-08-14T04:48:13.206Z,100.00
2022-08-14T04:50:49.096Z,100.00
2022-08-14T04:53:26.422Z,100.00
2022-08-14T04:56:10.378Z,100.00
2022-08-14T04:58:42.454Z,100.00
2022-08-14T05:01:17.865Z,100.00
2022-08-14T05:03:50.585Z,100.00
2022-08-14T05:06:37.614Z,100.00
2022-08-14T05:09:14.429Z,100.00
2022-08-14T05:11:44.170Z,100.00
2022-08-14T05:14:33.108Z,100.00
2022-08-14T05:17:02.594Z,100.00
2022-08-14T05:19:32.198Z,100.00
2022-08-14T05:22:16.414Z,100.00
2022-08-14T05:24:50.497Z,100.00
2022-08-14T05:27:22.982Z,100.00
2022-08-14T05:29:56.869Z,100.00
2022-08-14T05:32:28.115Z,100.00
2022-08-14T05:34:59.547Z,100.00
2022-08-14T05:37:31.004Z,100.00
2022-08-14T05:40:02.030Z,100.00
2022-08-14T05:42:34.292Z,100.00
2022-08-14T05:45:11.128Z,100.00
2022-08-14T05:47:43.162Z,100.00
2022-08-14T05:50:18.759Z,100.00
2022-08-14T05:52:51.994Z,100.00
2022-08-14T05:55:22.778Z,100.00
2022-08-14T05:57:59.358Z,100.00
2022-08-14T06:00:37.201Z,100.00
2022-08-14T06:03:10.893Z,100.00
2022-08-14T06:05:40.206Z,100.00
2022-08-14T06:08:31.391Z,100.00
2022-08-14T06:11:09.340Z,100.00
2022-08-14T06:13:45.238Z,100.00
2022-08-14T06:16:18.412Z,100.00
2022-08-14T06:18:52.620Z,100.00
2022-08-14T06:21:23.860Z,100.00
2022-08-14T06:23:54.194Z,100.00
2022-08-14T06:26:23.120Z,100.00
2022-08-14T06:28:59.869Z,100.00
2022-08-14T06:31:29.042Z,100.00
2022-08-14T06:35:02.281Z,100.00
2022-08-14T06:36:47.224Z,100.00
2022-08-14T06:39:17.706Z,100.00
2022-08-14T06:42:06.431Z,100.00
2022-08-14T06:44:35.841Z,100.00
2022-08-14T06:47:06.115Z,100.00
2022-08-14T06:49:40.478Z,100.00
2022-08-14T06:52:17.463Z,100.00
2022-08-14T06:54:49.863Z,100.00
2022-08-14T06:57:21.690Z,100.00
2022-08-14T06:59:51.949Z,100.00
2022-08-14T07:02:43.622Z,100.00
2022-08-14T07:05:30.363Z,100.00
2022-08-14T07:08:00.543Z,100.00
2022-08-14T07:10:31.925Z,100.00
2022-08-14T07:13:04.191Z,100.00
2022-08-14T07:15:39.570Z,100.00
2022-08-14T07:18:10.502Z,100.00
2022-08-14T07:20:40.599Z,100.00
2022-08-14T07:23:20.462Z,100.00
2022-08-14T07:25:57.004Z,100.00
2022-08-14T07:28:31.452Z,100.00
2022-08-14T07:31:05.232Z,100.00
2022-08-14T07:33:42.000Z,100.00
2022-08-14T07:36:27.528Z,100.00
2022-08-14T07:39:00.646Z,100.00
2022-08-14T07:41:35.660Z,100.00
2022-08-14T07:44:28.729Z,100.00
2022-08-14T07:46:54.640Z,100.00
2022-08-14T07:49:24.496Z,99.83
2022-08-14T07:51:56.335Z,100.00
2022-08-14T07:54:30.377Z,98.01
2022-08-14T07:57:11.924Z,96.33
2022-08-14T07:59:44.381Z,87.63
2022-08-14T08:02:20.553Z,91.48
2022-08-14T08:04:55.181Z,88.56
2022-08-14T08:07:31.780Z,84.08
2022-08-14T08:10:40.663Z,82.93
2022-08-14T08:13:22.305Z,79.41
2022-08-14T08:15:57.406Z,74.95
2022-08-14T08:18:29.424Z,80.79
2022-08-14T08:21:00.665Z,73.73
2022-08-14T08:23:40.469Z,67.67
2022-08-14T08:26:12.642Z,67.58
2022-08-14T08:28:44.646Z,68.17
2022-08-14T08:31:13.776Z,67.14
2022-08-14T08:33:43.653Z,63.16
2022-08-14T08:36:19.224Z,64.65
2022-08-14T08:39:17.145Z,63.64
2022-08-14T08:41:49.426Z,60.68
2022-08-14T08:44:33.004Z,61.43
2022-08-14T08:47:06.104Z,60.02
2022-08-14T08:49:52.857Z,58.08
2022-08-14T08:52:31.605Z,57.24
2022-08-14T08:55:04.967Z,54.31
2022-08-14T08:57:37.622Z,52.45
2022-08-14T09:00:24.371Z,52.97
2022-08-14T09:02:57.701Z,51.45
2022-08-14T09:05:28.771Z,51.57
2022-08-14T09:08:26.561Z,49.72
2022-08-14T09:11:02.367Z,50.50
2022-08-14T09:13:33.151Z,49.37
2022-08-14T09:16:18.615Z,48.94
2022-08-14T09:18:48.859Z,47.20
2022-08-14T09:21:18.390Z,47.81
2022-08-14T09:24:26.785Z,48.16
2022-08-14T09:26:38.523Z,47.36
2022-08-14T09:29:10.546Z,46.04
2022-08-14T09:31:52.940Z,46.34
2022-08-14T09:34:47.410Z,45.85
2022-08-14T09:38:01.435Z,46.12
2022-08-14T09:40:47.842Z,44.17
2022-08-14T09:43:32.043Z,47.21
2022-08-14T09:46:02.672Z,46.89
2022-08-14T09:48:37.599Z,47.34
2022-08-14T09:51:09.849Z,46.15
2022-08-14T09:54:19.403Z,45.70
2022-08-14T09:56:46.993Z,48.41
2022-08-14T09:59:28.284Z,48.39
2022-08-14T10:02:01.325Z,46.20
2022-08-14T10:04:36.001Z,44.84
2022-08-14T10:07:10.119Z,44.84
2022-08-14T10:09:59.465Z,45.42
2022-08-14T10:12:49.991Z,42.11
2022-08-14T10:15:23.860Z,44.99
2022-08-14T10:18:17.274Z,42.52
2022-08-14T10:21:00.934Z,42.61
2022-08-14T10:23:49.773Z,43.81
2022-08-14T10:26:23.126Z,42.93
2022-08-14T10:29:20.251Z,41.87
2022-08-14T10:32:00.102Z,40.59
2022-08-14T10:34:36.609Z,40.46
2022-08-14T10:37:14.665Z,40.17
2022-08-14T10:40:01.693Z,41.16
2022-08-14T10:42:40.469Z,39.31
2022-08-14T10:45:21.812Z,40.83
2022-08-14T10:48:09.221Z,40.35
2022-08-14T10:50:46.429Z,41.19
2022-08-14T10:53:17.145Z,38.86
2022-08-14T10:55:48.191Z,39.96
2022-08-14T10:58:34.146Z,40.60
2022-08-14T11:01:05.424Z,37.78
2022-08-14T11:03:56.883Z,39.60
2022-08-14T11:06:27.248Z,39.50
2022-08-14T11:09:17.027Z,39.97
2022-08-14T11:11:49.383Z,41.22
2022-08-14T11:14:26.574Z,40.43
2022-08-14T11:16:57.941Z,39.31
2022-08-14T11:19:27.621Z,38.08
2022-08-14T11:22:01.119Z,40.25
2022-08-14T11:24:53.871Z,39.42
2022-08-14T11:27:33.153Z,38.60
2022-08-14T11:30:50.781Z,39.30
2022-08-14T11:32:59.917Z,39.73
2022-08-14T11:35:44.361Z,40.14
2022-08-14T11:38:19.959Z,38.86
2022-08-14T11:40:52.487Z,40.56
2022-08-14T11:43:22.613Z,39.89
2022-08-14T11:46:03.737Z,41.32
2022-08-14T11:49:02.526Z,39.96
2022-08-14T11:51:35.923Z,38.62
2022-08-14T11:54:20.215Z,39.18
2022-08-14T11:57:06.329Z,38.65
2022-08-14T11:59:35.390Z,37.21
2022-08-14T12:03:00.600Z,40.53
2022-08-14T12:05:03.979Z,36.26
2022-08-14T12:07:33.454Z,38.67
2022-08-14T12:10:26.992Z,36.71
2022-08-14T12:12:56.403Z,35.30
2022-08-14T12:15:35.936Z,34.50
2022-08-14T12:18:06.502Z,39.32
2022-08-14T12:20:52.476Z,35.80
2022-08-14T12:23:24.817Z,36.73
2022-08-14T12:26:32.018Z,35.69
2022-08-14T12:29:08.404Z,35.06
2022-08-14T12:31:44.587Z,34.59
2022-08-14T12:34:19.985Z,33.93
2022-08-14T12:36:50.000Z,33.91
2022-08-14T12:39:21.223Z,34.03
2022-08-14T12:41:57.353Z,36.00
2022-08-14T12:44:37.344Z,32.02
2022-08-14T12:47:09.637Z,34.04
2022-08-14T12:49:52.500Z,32.68
2022-08-14T12:52:42.942Z,33.01
2022-08-14T12:55:21.049Z,33.99
2022-08-14T12:57:53.736Z,33.54
2022-08-14T13:00:25.940Z,34.89
2022-08-14T13:02:56.814Z,33.18
2022-08-14T13:05:27.279Z,35.65
2022-08-14T13:07:57.335Z,34.63
2022-08-14T13:10:51.339Z,32.73
2022-08-14T13:13:22.288Z,33.08
2022-08-14T13:15:57.435Z,33.19
2022-08-14T13:18:30.444Z,31.15
2022-08-14T13:21:02.383Z,32.75
2022-08-14T13:23:37.545Z,33.03
2022-08-14T13:26:08.398Z,33.62
2022-08-14T13:29:02.072Z,32.65
2022-08-14T13:31:37.017Z,32.93
2022-08-14T13:34:06.860Z,31.55
2022-08-14T13:36:54.647Z,31.88
2022-08-14T13:39:29.757Z,31.47
2022-08-14T13:42:08.073Z,31.40
2022-08-14T13:44:42.485Z,29.91
2022-08-14T13:47:15.341Z,31.44
2022-08-14T13:49:57.192Z,31.30
2022-08-14T13:52:51.286Z,30.30
2022-08-14T13:55:21.871Z,30.68
2022-08-14T13:58:02.868Z,32.20
2022-08-14T14:00:52.119Z,29.64
2022-08-14T14:03:30.525Z,30.73
2022-08-14T14:06:03.442Z,31.63
2022-08-14T14:08:45.816Z,30.99
2022-08-14T14:11:23.896Z,31.42
2022-08-14T14:13:55.175Z,33.17
2022-08-14T14:16:30.701Z,31.51
2022-08-14T14:19:08.736Z,33.23
2022-08-14T14:21:40.443Z,33.39
2022-08-14T14:24:15.511Z,33.42
2022-08-14T14:26:50.171Z,32.53
2022-08-14T14:29:24.212Z,31.79
2022-08-14T14:31:58.663Z,32.48
2022-08-14T14:34:34.061Z,32.35
2022-08-14T14:37:06.186Z,32.65
2022-08-14T14:40:50.546Z,33.48
2022-08-14T14:42:31.997Z,31.12
2022-08-14T14:45:14.244Z,33.97
2022-08-14T14:47:48.351Z,33.02
2022-08-14T14:50:23.036Z,34.76
2022-08-14T14:52:54.046Z,34.75
2022-08-14T14:56:50.258Z,34.22
2022-08-14T14:58:35.488Z,35.35
2022-08-14T15:01:08.502Z,34.65
2022-08-14T15:03:43.235Z,35.26
2022-08-14T15:06:17.564Z,34.80
2022-08-14T15:08:55.638Z,34.89
2022-08-14T15:11:30.208Z,35.19
2022-08-14T15:14:00.528Z,33.81
2022-08-14T15:16:30.004Z,33.92
2022-08-14T15:18:59.083Z,33.08
2022-08-14T15:21:29.622Z,32.01
2022-08-14T15:24:01.038Z,32.76
2022-08-14T15:26:31.498Z,32.21
2022-08-14T15:29:05.903Z,33.18
2022-08-14T15:31:37.410Z,33.20
2022-08-14T15:34:45.498Z,31.32
2022-08-14T15:37:11.170Z,31.67
2022-08-14T15:39:45.888Z,33.21
2022-08-14T15:42:17.084Z,31.72
2022-08-14T15:44:56.906Z,32.18
2022-08-14T15:47:29.547Z,31.74
2022-08-14T15:50:00.516Z,32.08
2022-08-14T15:52:34.748Z,33.60
2022-08-14T15:55:06.376Z,31.95
2022-08-14T15:57:36.653Z,33.37
2022-08-14T16:00:43.261Z,32.20
2022-08-14T16:03:14.295Z,32.68
2022-08-14T16:05:46.291Z,31.82
2022-08-14T16:08:27.464Z,32.20
2022-08-14T16:11:00.382Z,31.34
2022-08-14T16:13:42.209Z,31.25
2022-08-14T16:16:47.076Z,30.79
2022-08-14T16:19:09.523Z,31.41
2022-08-14T16:22:01.515Z,30.88
2022-08-14T16:25:01.943Z,31.93
2022-08-14T16:27:38.861Z,32.33
2022-08-14T16:30:20.682Z,32.36
2022-08-14T16:32:56.457Z,31.85
2022-08-14T16:35:42.984Z,33.04
2022-08-14T16:38:46.209Z,32.71
2022-08-14T16:41:23.348Z,33.72
2022-08-14T16:43:59.221Z,33.47
2022-08-14T16:46:32.837Z,34.48
2022-08-14T16:49:02.702Z,35.09
2022-08-14T16:51:34.789Z,33.99
2022-08-14T16:54:34.323Z,34.54
2022-08-14T16:57:16.221Z,35.90
2022-08-14T16:59:57.324Z,34.83
2022-08-14T17:02:39.045Z,35.80
2022-08-14T17:05:22.571Z,35.58
2022-08-14T17:08:32.079Z,36.73
2022-08-14T17:11:10.089Z,36.62
2022-08-14T17:13:59.385Z,36.20
2022-08-14T17:16:35.686Z,35.97
2022-08-14T17:19:13.462Z,36.16
2022-08-14T17:21:47.155Z,36.77
2022-08-14T17:24:57.647Z,36.99
2022-08-14T17:27:09.295Z,37.60
2022-08-14T17:29:44.753Z,37.62
2022-08-14T17:32:56.603Z,37.96
2022-08-14T17:35:58.777Z,38.74
2022-08-14T17:38:38.830Z,38.46
2022-08-14T17:41:32.717Z,39.28
2022-08-14T17:44:34.038Z,39.44
2022-08-14T17:47:18.403Z,39.69
2022-08-14T17:49:53.941Z,40.30
2022-08-14T17:52:34.196Z,40.36
2022-08-14T17:55:07.260Z,41.21
2022-08-14T17:57:41.147Z,41.45
2022-08-14T18:00:15.110Z,41.37
2022-08-14T18:02:50.435Z,41.85
2022-08-14T18:06:08.486Z,42.13
2022-08-14T18:08:32.727Z,42.72
2022-08-14T18:11:04.028Z,42.84
2022-08-14T18:13:49.782Z,43.05
2022-08-14T18:16:22.643Z,43.75
2022-08-14T18:18:53.547Z,44.65
2022-08-14T18:21:56.254Z,44.59
2022-08-14T18:24:27.990Z,45.12
2022-08-14T18:27:06.885Z,45.02
2022-08-14T18:29:54.607Z,45.50
2022-08-14T18:32:55.409Z,45.91
2022-08-14T18:35:45.669Z,46.34
2022-08-14T18:38:45.639Z,47.16
2022-08-14T18:41:36.788Z,47.39
2022-08-14T18:44:10.690Z,48.00
2022-08-14T18:47:21.120Z,48.63
2022-08-14T18:50:27.922Z,48.97
2022-08-14T18:53:10.865Z,49.86
2022-08-14T18:55:54.441Z,50.06
2022-08-14T18:58:30.393Z,50.40
2022-08-14T19:01:09.041Z,51.07
2022-08-14T19:03:58.147Z,50.61
2022-08-14T19:06:56.328Z,51.59
2022-08-14T19:09:58.827Z,51.68
2022-08-14T19:12:57.637Z,52.22
2022-08-14T19:15:30.120Z,52.16
2022-08-14T19:18:14.737Z,52.77
2022-08-14T19:20:52.781Z,52.88
2022-08-14T19:23:43.974Z,54.00
2022-08-14T19:26:36.741Z,54.17
2022-08-14T19:29:36.078Z,54.56
2022-08-14T19:32:42.082Z,54.93
2022-08-14T19:35:49.646Z,55.50
2022-08-14T19:38:51.946Z,56.15
2022-08-14T19:41:29.488Z,56.19
2022-08-14T19:44:12.660Z,56.36
2022-08-14T19:47:01.290Z,56.99
2022-08-14T19:50:24.535Z,57.56
2022-08-14T19:52:29.798Z,58.02
2022-08-14T19:55:02.138Z,57.49
2022-08-14T19:57:33.385Z,57.71
2022-08-14T20:00:28.438Z,58.81
2022-08-14T20:03:10.727Z,59.56
2022-08-14T20:05:42.829Z,60.16
2022-08-14T20:11:00.561Z,61.17
2022-08-14T20:11:21.087Z,61.55
2022-08-14T20:14:09.530Z,62.05
2022-08-14T20:16:43.856Z,62.87
2022-08-14T20:19:20.971Z,64.25
2022-08-14T20:22:04.199Z,65.04
2022-08-14T20:24:47.395Z,64.76
2022-08-14T20:27:34.358Z,64.52
2022-08-14T20:30:33.683Z,65.78
2022-08-14T20:33:11.264Z,67.24
2022-08-14T20:35:49.021Z,67.50
2022-08-14T20:38:29.398Z,68.82
2022-08-14T20:41:24.816Z,69.59
2022-08-14T20:44:20.748Z,70.06
2022-08-14T20:46:58.943Z,68.34
2022-08-14T20:49:33.796Z,72.01
2022-08-14T20:52:19.277Z,72.57
2022-08-14T20:54:51.378Z,70.64
2022-08-14T20:57:20.909Z,72.56
2022-08-14T20:59:57.541Z,71.84
2022-08-14T21:02:46.754Z,74.00
2022-08-14T21:05:33.936Z,74.10
2022-08-14T21:08:09.965Z,73.94
2022-08-14T21:10:56.690Z,73.99
2022-08-14T21:14:24.815Z,74.48
2022-08-14T21:16:34.682Z,73.86
2022-08-14T21:19:08.621Z,73.13
2022-08-14T21:21:40.846Z,72.77
2022-08-14T21:24:39.635Z,72.36
2022-08-14T21:27:12.956Z,73.18
2022-08-14T21:29:55.057Z,72.18
2022-08-14T21:32:46.957Z,73.17
2022-08-14T21:35:22.929Z,73.07
2022-08-14T21:37:53.663Z,72.31
2022-08-14T21:40:42.343Z,76.18
2022-08-14T21:43:19.422Z,73.72
2022-08-14T21:45:53.021Z,75.40
2022-08-14T21:48:26.319Z,73.77
2022-08-14T21:51:54.538Z,77.00
2022-08-14T21:53:59.424Z,76.29
2022-08-14T21:56:38.146Z,76.75
2022-08-14T21:59:17.557Z,76.88
2022-08-14T22:02:01.509Z,78.09
2022-08-14T22:04:40.820Z,77.84
2022-08-14T22:07:16.903Z,80.73
2022-08-14T22:09:55.161Z,80.11
2022-08-14T22:12:47.338Z,79.33
2022-08-14T22:15:19.777Z,81.46
2022-08-14T22:17:54.242Z,81.77
2022-08-14T22:20:29.228Z,84.48
2022-08-14T22:23:05.260Z,85.74
2022-08-14T22:25:41.074Z,84.68
2022-08-14T22:28:15.558Z,85.85
2022-08-14T22:30:45.930Z,83.96
2022-08-14T22:33:16.340Z,84.39
2022-08-14T22:35:56.403Z,84.55
2022-08-14T22:38:37.602Z,87.43
2022-08-14T22:41:25.808Z,87.02
2022-08-14T22:44:06.838Z,90.99
2022-08-14T22:46:38.453Z,89.22
2022-08-14T22:49:16.880Z,88.62
2022-08-14T22:52:05.004Z,92.15
2022-08-14T22:54:55.568Z,90.57
2022-08-14T22:57:41.710Z,91.41
2022-08-14T23:00:17.487Z,89.27
2022-08-14T23:02:47.130Z,93.26
2022-08-14T23:05:39.811Z,91.50
2022-08-14T23:08:59.798Z,93.42
2022-08-14T23:11:07.459Z,94.60
2022-08-14T23:13:36.576Z,92.61
2022-08-14T23:16:09.398Z,96.63
2022-08-14T23:18:38.993Z,94.26
2022-08-14T23:21:10.798Z,94.96
2022-08-14T23:23:41.510Z,93.39
2022-08-14T23:26:49.922Z,94.66
2022-08-14T23:29:03.045Z,96.09
2022-08-14T23:31:35.228Z,95.16
2022-08-14T23:34:07.496Z,97.33
2022-08-14T23:36:53.622Z,96.79
2022-08-14T23:39:32.221Z,93.43
2022-08-14T23:42:10.341Z,97.05
2022-08-14T23:44:40.764Z,100.00
2022-08-14T23:47:26.197Z,100.00
2022-08-14T23:50:03.465Z,96.96
2022-08-14T23:53:04.116Z,97.29
2022-08-14T23:55:32.857Z,100.00
2022-08-14T23:58:03.185Z,100.00
